createdAt,value
2018-07-08T00:00:59.497Z,1016.52
2018-07-08T00:01:59.425Z,1016.54
2018-07-08T00:02:59.379Z,1016.55
2018-07-08T00:03:59.285Z,1016.58
2018-07-08T00:04:59.214Z,1016.57
2018-07-08T00:05:59.143Z,1016.53
2018-07-08T00:06:59.074Z,1016.54
2018-07-08T00:07:59.006Z,1016.50
2018-07-08T00:08:58.937Z,1016.54
2018-07-08T00:09:58.864Z,1016.57
2018-07-08T00:10:58.798Z,1016.53
2018-07-08T00:11:58.720Z,1016.58
2018-07-08T00:12:58.658Z,1016.59
2018-07-08T00:13:58.579Z,1016.57
2018-07-08T00:14:58.515Z,1016.58
2018-07-08T00:15:58.445Z,1016.60
2018-07-08T00:16:58.378Z,1016.62
2018-07-08T00:17:58.301Z,1016.64
2018-07-08T00:18:58.234Z,1016.63
2018-07-08T00:19:58.163Z,1016.62
2018-07-08T00:20:58.092Z,1016.61
2018-07-08T00:21:58.020Z,1016.64
2018-07-08T00:22:57.951Z,1016.62
2018-07-08T00:23:57.879Z,1016.63
2018-07-08T00:24:57.812Z,1016.64
2018-07-08T00:25:57.739Z,1016.59
2018-07-08T00:26:57.668Z,1016.64
2018-07-08T00:27:57.599Z,1016.58
2018-07-08T00:28:57.539Z,1016.61
2018-07-08T00:29:57.458Z,1016.61
2018-07-08T00:30:57.389Z,1016.63
2018-07-08T00:31:57.318Z,1016.62
2018-07-08T00:32:57.246Z,1016.58
2018-07-08T00:33:57.173Z,1016.59
2018-07-08T00:34:57.105Z,1016.58
2018-07-08T00:35:57.035Z,1016.55
2018-07-08T00:36:56.964Z,1016.56
2018-07-08T00:37:56.893Z,1016.57
2018-07-08T00:38:56.827Z,1016.58
2018-07-08T00:39:56.804Z,1016.57
2018-07-08T00:40:56.685Z,1016.57
2018-07-08T00:41:56.613Z,1016.58
2018-07-08T00:42:56.544Z,1016.57
2018-07-08T00:43:56.472Z,1016.59
2018-07-08T00:44:56.404Z,1016.56
2018-07-08T00:45:56.332Z,1016.62
2018-07-08T00:46:56.261Z,1016.59
2018-07-08T00:47:56.200Z,1016.61
2018-07-08T00:48:56.126Z,1016.60
2018-07-08T00:49:56.048Z,1016.66
2018-07-08T00:50:55.984Z,1016.64
2018-07-08T00:51:55.912Z,1016.61
2018-07-08T00:52:55.851Z,1016.64
2018-07-08T00:53:55.769Z,1016.62
2018-07-08T00:54:55.700Z,1016.61
2018-07-08T00:55:55.626Z,1016.62
2018-07-08T00:56:55.562Z,1016.66
2018-07-08T00:57:55.484Z,1016.69
2018-07-08T00:58:55.416Z,1016.70
2018-07-08T00:59:55.352Z,1016.67
2018-07-08T01:00:55.276Z,1016.71
2018-07-08T01:01:55.205Z,1016.67
2018-07-08T01:02:55.133Z,1016.70
2018-07-08T01:03:55.063Z,1016.76
2018-07-08T01:04:54.989Z,1016.77
2018-07-08T01:05:54.927Z,1016.77
2018-07-08T01:06:54.848Z,1016.79
2018-07-08T01:07:54.780Z,1016.75
2018-07-08T01:08:54.706Z,1016.75
2018-07-08T01:09:54.640Z,1016.77
2018-07-08T01:10:54.570Z,1016.74
2018-07-08T01:11:54.498Z,1016.77
2018-07-08T01:12:54.425Z,1016.75
2018-07-08T01:13:54.359Z,1016.76
2018-07-08T01:14:54.282Z,1016.74
2018-07-08T01:15:54.213Z,1016.77
2018-07-08T01:16:54.145Z,1016.78
2018-07-08T01:17:54.075Z,1016.79
2018-07-08T01:18:54.000Z,1016.81
2018-07-08T01:19:53.931Z,1016.83
2018-07-08T01:20:53.858Z,1016.78
2018-07-08T01:21:53.791Z,1016.77
2018-07-08T01:22:53.719Z,1016.81
2018-07-08T01:23:53.643Z,1016.85
2018-07-08T01:24:53.577Z,1016.82
2018-07-08T01:25:53.506Z,1016.84
2018-07-08T01:26:53.434Z,1016.85
2018-07-08T01:27:53.366Z,1016.88
2018-07-08T01:28:53.295Z,1016.86
2018-07-08T01:29:53.225Z,1016.83
2018-07-08T01:30:53.151Z,1016.83
2018-07-08T01:31:53.083Z,1016.85
2018-07-08T01:32:53.009Z,1016.86
2018-07-08T01:33:52.938Z,1016.85
2018-07-08T01:34:52.869Z,1016.87
2018-07-08T01:35:52.796Z,1016.82
2018-07-08T01:36:52.726Z,1016.90
2018-07-08T01:37:52.655Z,1016.91
2018-07-08T01:38:52.583Z,1016.89
2018-07-08T01:39:52.514Z,1016.94
2018-07-08T01:40:52.442Z,1016.92
2018-07-08T01:41:52.369Z,1016.96
2018-07-08T01:42:52.303Z,1016.98
2018-07-08T01:43:52.233Z,1016.99
2018-07-08T01:44:52.158Z,1017.01
2018-07-08T01:45:52.088Z,1017.05
2018-07-08T01:46:52.018Z,1017.06
2018-07-08T01:47:51.944Z,1017.07
2018-07-08T01:48:51.876Z,1017.06
2018-07-08T01:49:51.807Z,1017.10
2018-07-08T01:50:51.732Z,1017.08
2018-07-08T01:51:51.658Z,1017.03
2018-07-08T01:52:51.588Z,1017.08
2018-07-08T01:53:51.522Z,1017.11
2018-07-08T01:54:51.449Z,1017.09
2018-07-08T01:55:51.381Z,1017.08
2018-07-08T01:56:51.305Z,1017.12
2018-07-08T01:57:51.236Z,1017.15
2018-07-08T01:58:51.163Z,1017.13
2018-07-08T01:59:51.091Z,1017.13
2018-07-08T02:00:51.016Z,1017.13
2018-07-08T02:01:50.958Z,1017.13
2018-07-08T02:02:50.880Z,1017.13
2018-07-08T02:03:50.812Z,1017.15
2018-07-08T02:04:50.736Z,1017.13
2018-07-08T02:05:50.667Z,1017.10
2018-07-08T02:06:50.596Z,1017.11
2018-07-08T02:07:50.521Z,1017.11
2018-07-08T02:08:50.453Z,1017.13
2018-07-08T02:09:50.380Z,1017.14
2018-07-08T02:10:50.312Z,1017.17
2018-07-08T02:11:50.239Z,1017.10
2018-07-08T02:12:50.171Z,1017.09
2018-07-08T02:13:50.099Z,1017.09
2018-07-08T02:14:50.028Z,1017.12
2018-07-08T02:15:49.956Z,1017.15
2018-07-08T02:16:49.885Z,1017.16
2018-07-08T02:17:49.814Z,1017.14
2018-07-08T02:18:49.743Z,1017.18
2018-07-08T02:19:49.670Z,1017.17
2018-07-08T02:20:49.596Z,1017.15
2018-07-08T02:21:49.525Z,1017.13
2018-07-08T02:22:49.454Z,1017.16
2018-07-08T02:23:49.383Z,1017.16
2018-07-08T02:24:49.323Z,1017.15
2018-07-08T02:25:49.240Z,1017.14
2018-07-08T02:26:49.167Z,1017.15
2018-07-08T02:27:49.098Z,1017.15
2018-07-08T02:28:49.030Z,1017.16
2018-07-08T02:29:48.956Z,1017.17
2018-07-08T02:30:48.884Z,1017.17
2018-07-08T02:31:48.814Z,1017.16
2018-07-08T02:32:48.740Z,1017.20
2018-07-08T02:33:48.672Z,1017.16
2018-07-08T02:34:48.599Z,1017.11
2018-07-08T02:35:48.534Z,1017.15
2018-07-08T02:36:48.455Z,1017.15
2018-07-08T02:37:48.385Z,1017.12
2018-07-08T02:38:48.311Z,1017.17
2018-07-08T02:39:48.241Z,1017.12
2018-07-08T02:40:48.169Z,1017.13
2018-07-08T02:41:48.097Z,1017.12
2018-07-08T02:42:48.026Z,1017.16
2018-07-08T02:43:47.956Z,1017.12
2018-07-08T02:44:47.883Z,1017.10
2018-07-08T02:45:47.812Z,1017.15
2018-07-08T02:46:47.744Z,1017.11
2018-07-08T02:47:47.670Z,1017.14
2018-07-08T02:48:47.597Z,1017.11
2018-07-08T02:49:47.528Z,1017.13
2018-07-08T02:50:47.454Z,1017.16
2018-07-08T02:51:47.383Z,1017.15
2018-07-08T02:52:47.317Z,1017.15
2018-07-08T02:53:47.240Z,1017.13
2018-07-08T02:54:47.179Z,1017.16
2018-07-08T02:55:47.098Z,1017.13
2018-07-08T02:56:47.025Z,1017.16
2018-07-08T02:57:46.952Z,1017.15
2018-07-08T02:58:46.881Z,1017.13
2018-07-08T02:59:46.812Z,1017.10
2018-07-08T03:00:46.741Z,1017.12
2018-07-08T03:01:46.667Z,1017.13
2018-07-08T03:02:46.604Z,1017.13
2018-07-08T03:03:46.522Z,1017.11
2018-07-08T03:04:46.450Z,1017.10
2018-07-08T03:05:46.381Z,1017.12
2018-07-08T03:06:46.307Z,1017.11
2018-07-08T03:07:46.241Z,1017.12
2018-07-08T03:08:46.165Z,1017.12
2018-07-08T03:09:46.094Z,1017.12
2018-07-08T03:10:46.019Z,1017.12
2018-07-08T03:11:45.951Z,1017.08
2018-07-08T03:12:45.881Z,1017.08
2018-07-08T03:13:45.805Z,1017.07
2018-07-08T03:14:45.735Z,1017.08
2018-07-08T03:15:45.664Z,1017.08
2018-07-08T03:16:45.591Z,1017.06
2018-07-08T03:17:45.523Z,1017.11
2018-07-08T03:18:45.448Z,1017.12
2018-07-08T03:19:45.385Z,1017.13
2018-07-08T03:20:45.301Z,1017.13
2018-07-08T03:21:45.233Z,1017.14
2018-07-08T03:22:45.160Z,1017.12
2018-07-08T03:23:45.089Z,1017.11
2018-07-08T03:24:45.017Z,1017.13
2018-07-08T03:25:44.944Z,1017.16
2018-07-08T03:26:44.878Z,1017.16
2018-07-08T03:27:44.801Z,1017.22
2018-07-08T03:28:44.746Z,1017.19
2018-07-08T03:29:44.654Z,1017.23
2018-07-08T03:30:44.596Z,1017.23
2018-07-08T03:31:44.514Z,1017.25
2018-07-08T03:32:44.441Z,1017.20
2018-07-08T03:33:44.363Z,1017.24
2018-07-08T03:34:44.296Z,1017.25
2018-07-08T03:35:44.224Z,1017.21
2018-07-08T03:36:44.154Z,1017.21
2018-07-08T03:37:44.082Z,1017.23
2018-07-08T03:38:44.008Z,1017.20
2018-07-08T03:39:43.935Z,1017.25
2018-07-08T03:40:43.865Z,1017.24
2018-07-08T03:41:43.798Z,1017.26
2018-07-08T03:42:43.712Z,1017.27
2018-07-08T03:43:43.647Z,1017.27
2018-07-08T03:44:43.575Z,1017.29
2018-07-08T03:45:43.503Z,1017.32
2018-07-08T03:46:43.426Z,1017.30
2018-07-08T03:47:43.364Z,1017.39
2018-07-08T03:48:43.286Z,1017.38
2018-07-08T03:49:43.209Z,1017.36
2018-07-08T03:50:43.143Z,1017.38
2018-07-08T03:51:43.069Z,1017.40
2018-07-08T03:52:43.003Z,1017.37
2018-07-08T03:53:42.924Z,1017.39
2018-07-08T03:54:42.860Z,1017.35
2018-07-08T03:55:42.776Z,1017.32
2018-07-08T03:56:42.710Z,1017.33
2018-07-08T03:57:42.637Z,1017.32
2018-07-08T03:58:42.564Z,1017.38
2018-07-08T03:59:42.489Z,1017.29
2018-07-08T04:00:42.430Z,1017.33
2018-07-08T04:01:42.349Z,1017.33
2018-07-08T04:02:42.278Z,1017.33
2018-07-08T04:03:42.204Z,1017.31
2018-07-08T04:04:42.135Z,1017.30
2018-07-08T04:05:42.066Z,1017.28
2018-07-08T04:06:41.987Z,1017.30
2018-07-08T04:07:41.918Z,1017.29
2018-07-08T04:08:41.839Z,1017.31
2018-07-08T04:09:41.769Z,1017.31
2018-07-08T04:10:41.701Z,1017.30
2018-07-08T04:11:41.624Z,1017.31
2018-07-08T04:12:41.551Z,1017.32
2018-07-08T04:13:41.489Z,1017.31
2018-07-08T04:14:41.409Z,1017.32
2018-07-08T04:15:41.336Z,1017.35
2018-07-08T04:16:41.271Z,1017.31
2018-07-08T04:17:41.194Z,1017.33
2018-07-08T04:18:41.121Z,1017.33
2018-07-08T04:19:41.050Z,1017.36
2018-07-08T04:20:40.985Z,1017.35
2018-07-08T04:21:40.910Z,1017.41
2018-07-08T04:22:40.831Z,1017.41
2018-07-08T04:23:40.762Z,1017.40
2018-07-08T04:24:40.687Z,1017.41
2018-07-08T04:25:40.614Z,1017.47
2018-07-08T04:26:40.542Z,1017.46
2018-07-08T04:27:40.471Z,1017.48
2018-07-08T04:28:40.395Z,1017.49
2018-07-08T04:29:40.327Z,1017.50
2018-07-08T04:30:40.252Z,1017.51
2018-07-08T04:31:40.186Z,1017.52
2018-07-08T04:32:40.108Z,1017.55
2018-07-08T04:33:40.043Z,1017.58
2018-07-08T04:34:39.960Z,1017.58
2018-07-08T04:35:39.889Z,1017.58
2018-07-08T04:36:39.819Z,1017.61
2018-07-08T04:37:39.749Z,1017.62
2018-07-08T04:38:39.679Z,1017.64
2018-07-08T04:39:39.602Z,1017.62
2018-07-08T04:40:39.535Z,1017.58
2018-07-08T04:41:39.457Z,1017.60
2018-07-08T04:42:39.388Z,1017.64
2018-07-08T04:43:39.315Z,1017.68
2018-07-08T04:44:39.254Z,1017.69
2018-07-08T04:45:39.171Z,1017.67
2018-07-08T04:46:39.098Z,1017.71
2018-07-08T04:47:39.020Z,1017.66
2018-07-08T04:48:38.953Z,1017.70
2018-07-08T04:49:38.880Z,1017.75
2018-07-08T04:50:38.806Z,1017.76
2018-07-08T04:51:38.736Z,1017.79
2018-07-08T04:52:38.663Z,1017.78
2018-07-08T04:53:38.595Z,1017.78
2018-07-08T04:54:38.516Z,1017.81
2018-07-08T04:55:38.444Z,1017.79
2018-07-08T04:56:38.383Z,1017.80
2018-07-08T04:57:38.309Z,1017.78
2018-07-08T04:58:38.227Z,1017.81
2018-07-08T04:59:38.155Z,1017.83
2018-07-08T05:00:38.087Z,1017.87
2018-07-08T05:01:38.012Z,1017.87
2018-07-08T05:02:37.938Z,1017.84
2018-07-08T05:03:37.866Z,1017.85
2018-07-08T05:04:37.796Z,1017.84
2018-07-08T05:05:37.724Z,1017.88
2018-07-08T05:06:37.720Z,1017.85
2018-07-08T05:07:37.577Z,1017.86
2018-07-08T05:08:37.504Z,1017.92
2018-07-08T05:09:37.445Z,1017.95
2018-07-08T05:10:37.368Z,1017.94
2018-07-08T05:11:37.290Z,1018.00
2018-07-08T05:12:37.224Z,1017.98
2018-07-08T05:13:37.147Z,1017.98
2018-07-08T05:14:37.073Z,1018.00
2018-07-08T05:15:37.001Z,1018.02
2018-07-08T05:16:36.930Z,1018.01
2018-07-08T05:17:36.858Z,1018.02
2018-07-08T05:18:36.786Z,1017.99
2018-07-08T05:19:36.713Z,1018.04
2018-07-08T05:20:36.643Z,1017.99
2018-07-08T05:21:36.572Z,1018.04
2018-07-08T05:22:36.495Z,1018.03
2018-07-08T05:23:36.426Z,1018.07
2018-07-08T05:24:36.352Z,1018.07
2018-07-08T05:25:36.279Z,1018.07
2018-07-08T05:26:36.211Z,1018.07
2018-07-08T05:27:36.135Z,1018.06
2018-07-08T05:28:36.070Z,1018.04
2018-07-08T05:29:35.992Z,1018.07
2018-07-08T05:30:35.923Z,1018.07
2018-07-08T05:31:35.851Z,1018.06
2018-07-08T05:32:35.777Z,1018.04
2018-07-08T05:33:35.706Z,1018.08
2018-07-08T05:34:35.630Z,1018.06
2018-07-08T05:35:35.573Z,1018.03
2018-07-08T05:36:35.488Z,1018.06
2018-07-08T05:37:35.420Z,1018.02
2018-07-08T05:38:35.352Z,1018.00
2018-07-08T05:39:35.270Z,1018.03
2018-07-08T05:40:35.200Z,1018.01
2018-07-08T05:41:35.131Z,1017.98
2018-07-08T05:42:35.056Z,1017.99
2018-07-08T05:43:34.985Z,1017.93
2018-07-08T05:44:34.915Z,1017.95
2018-07-08T05:45:34.840Z,1018.00
2018-07-08T05:46:34.775Z,1017.97
2018-07-08T05:47:34.697Z,1018.01
2018-07-08T05:48:34.654Z,1018.02
2018-07-08T05:49:34.553Z,1018.01
2018-07-08T05:50:34.502Z,1017.96
2018-07-08T05:51:34.415Z,1017.97
2018-07-08T05:52:34.345Z,1018.00
2018-07-08T05:53:34.268Z,1018.00
2018-07-08T05:54:34.201Z,1017.99
2018-07-08T05:55:34.126Z,1018.01
2018-07-08T05:56:34.051Z,1018.02
2018-07-08T05:57:33.981Z,1017.99
2018-07-08T05:58:33.908Z,1017.98
2018-07-08T05:59:33.847Z,1017.97
2018-07-08T06:00:33.766Z,1018.03
2018-07-08T06:01:33.698Z,1018.05
2018-07-08T06:02:33.623Z,1018.04
2018-07-08T06:03:33.554Z,1018.04
2018-07-08T06:04:33.503Z,1018.04
2018-07-08T06:05:33.404Z,1018.03
2018-07-08T06:06:33.360Z,1018.07
2018-07-08T06:07:33.263Z,1018.07
2018-07-08T06:08:33.190Z,1018.06
2018-07-08T06:09:33.121Z,1018.05
2018-07-08T06:10:33.050Z,1018.08
2018-07-08T06:11:32.999Z,1018.08
2018-07-08T06:12:32.907Z,1018.04
2018-07-08T06:13:32.833Z,1018.03
2018-07-08T06:14:32.762Z,1018.00
2018-07-08T06:15:32.694Z,1018.00
2018-07-08T06:16:32.619Z,1017.98
2018-07-08T06:17:32.549Z,1018.01
2018-07-08T06:18:32.480Z,1018.09
2018-07-08T06:19:32.407Z,1018.02
2018-07-08T06:20:32.338Z,1018.06
2018-07-08T06:21:32.268Z,1018.03
2018-07-08T06:22:32.195Z,1018.08
2018-07-08T06:23:32.119Z,1018.04
2018-07-08T06:24:32.048Z,1018.08
2018-07-08T06:25:31.979Z,1018.13
2018-07-08T06:26:31.907Z,1018.13
2018-07-08T06:27:31.833Z,1018.13
2018-07-08T06:28:31.764Z,1018.15
2018-07-08T06:29:31.692Z,1018.16
2018-07-08T06:30:31.625Z,1018.15
2018-07-08T06:31:31.551Z,1018.17
2018-07-08T06:32:31.480Z,1018.18
2018-07-08T06:33:31.408Z,1018.17
2018-07-08T06:34:31.339Z,1018.25
2018-07-08T06:35:31.265Z,1018.21
2018-07-08T06:36:31.240Z,1018.21
2018-07-08T06:37:31.126Z,1018.25
2018-07-08T06:38:31.056Z,1018.24
2018-07-08T06:39:30.980Z,1018.23
2018-07-08T06:40:30.910Z,1018.26
2018-07-08T06:41:30.843Z,1018.23
2018-07-08T06:42:30.767Z,1018.22
2018-07-08T06:43:30.690Z,1018.22
2018-07-08T06:44:30.621Z,1018.16
2018-07-08T06:45:30.605Z,1018.14
2018-07-08T06:46:30.482Z,1018.14
2018-07-08T06:47:30.416Z,1018.16
2018-07-08T06:48:30.339Z,1018.11
2018-07-08T06:49:30.268Z,1018.15
2018-07-08T06:50:30.197Z,1018.13
2018-07-08T06:51:30.127Z,1018.12
2018-07-08T06:52:30.053Z,1018.12
2018-07-08T06:53:29.984Z,1018.11
2018-07-08T06:54:29.912Z,1018.14
2018-07-08T06:55:29.849Z,1018.14
2018-07-08T06:56:29.770Z,1018.15
2018-07-08T06:57:29.706Z,1018.18
2018-07-08T06:58:29.629Z,1018.17
2018-07-08T06:59:29.564Z,1018.17
2018-07-08T07:00:29.492Z,1018.19
2018-07-08T07:01:29.415Z,1018.19
2018-07-08T07:02:29.347Z,1018.20
2018-07-08T07:03:29.273Z,1018.16
2018-07-08T07:04:29.204Z,1018.20
2018-07-08T07:05:29.132Z,1018.25
2018-07-08T07:06:29.063Z,1018.22
2018-07-08T07:07:28.992Z,1018.20
2018-07-08T07:08:28.920Z,1018.25
2018-07-08T07:09:28.848Z,1018.21
2018-07-08T07:10:28.779Z,1018.20
2018-07-08T07:11:28.705Z,1018.21
2018-07-08T07:12:28.635Z,1018.21
2018-07-08T07:13:28.571Z,1018.20
2018-07-08T07:14:28.500Z,1018.18
2018-07-08T07:15:28.424Z,1018.16
2018-07-08T07:16:28.389Z,1018.20
2018-07-08T07:17:28.308Z,1018.18
2018-07-08T07:18:28.212Z,1018.22
2018-07-08T07:19:28.143Z,1018.24
2018-07-08T07:20:28.071Z,1018.22
2018-07-08T07:21:28.000Z,1018.22
2018-07-08T07:22:27.931Z,1018.18
2018-07-08T07:23:27.855Z,1018.15
2018-07-08T07:24:27.790Z,1018.21
2018-07-08T07:25:27.715Z,1018.18
2018-07-08T07:26:27.648Z,1018.19
2018-07-08T07:27:27.572Z,1018.15
2018-07-08T07:28:27.516Z,1018.13
2018-07-08T07:29:27.441Z,1018.13
2018-07-08T07:30:27.365Z,1018.15
2018-07-08T07:31:27.299Z,1018.19
2018-07-08T07:32:27.224Z,1018.14
2018-07-08T07:33:27.153Z,1018.20
2018-07-08T07:34:27.082Z,1018.16
2018-07-08T07:35:27.013Z,1018.11
2018-07-08T07:36:26.945Z,1018.20
2018-07-08T07:37:26.969Z,1018.18
2018-07-08T07:38:26.826Z,1018.21
2018-07-08T07:39:26.728Z,1018.23
2018-07-08T07:40:26.670Z,1018.15
2018-07-08T07:41:26.593Z,1018.16
2018-07-08T07:42:26.522Z,1018.15
2018-07-08T07:43:26.445Z,1018.19
2018-07-08T07:44:26.384Z,1018.17
2018-07-08T07:45:26.326Z,1018.20
2018-07-08T07:46:26.244Z,1018.17
2018-07-08T07:47:26.169Z,1018.20
2018-07-08T07:48:26.105Z,1018.21
2018-07-08T07:49:26.029Z,1018.24
2018-07-08T07:50:25.957Z,1018.24
2018-07-08T07:51:25.892Z,1018.24
2018-07-08T07:52:25.817Z,1018.22
2018-07-08T07:53:25.753Z,1018.26
2018-07-08T07:54:25.677Z,1018.20
2018-07-08T07:55:25.607Z,1018.21
2018-07-08T07:56:25.541Z,1018.23
2018-07-08T07:57:25.470Z,1018.21
2018-07-08T07:58:25.397Z,1018.23
2018-07-08T07:59:25.325Z,1018.22
2018-07-08T08:00:25.259Z,1018.25
2018-07-08T08:01:25.188Z,1018.22
2018-07-08T08:02:25.116Z,1018.20
2018-07-08T08:03:25.092Z,1018.25
2018-07-08T08:04:24.982Z,1018.24
2018-07-08T08:05:24.905Z,1018.26
2018-07-08T08:06:24.835Z,1018.21
2018-07-08T08:07:24.775Z,1018.21
2018-07-08T08:08:24.771Z,1018.24
2018-07-08T08:09:24.627Z,1018.25
2018-07-08T08:10:24.555Z,1018.27
2018-07-08T08:11:24.484Z,1018.22
2018-07-08T08:12:24.419Z,1018.27
2018-07-08T08:13:24.340Z,1018.22
2018-07-08T08:14:24.286Z,1018.24
2018-07-08T08:15:24.204Z,1018.21
2018-07-08T08:16:24.138Z,1018.21
2018-07-08T08:17:24.067Z,1018.20
2018-07-08T08:18:23.996Z,1018.16
2018-07-08T08:19:23.924Z,1018.22
2018-07-08T08:20:23.859Z,1018.23
2018-07-08T08:21:23.790Z,1018.21
2018-07-08T08:22:23.717Z,1018.24
2018-07-08T08:23:23.646Z,1018.30
2018-07-08T08:24:23.581Z,1018.24
2018-07-08T08:25:23.509Z,1018.27
2018-07-08T08:26:23.510Z,1018.29
2018-07-08T08:27:23.373Z,1018.31
2018-07-08T08:28:23.302Z,1018.30
2018-07-08T08:29:23.232Z,1018.34
2018-07-08T08:30:23.163Z,1018.34
2018-07-08T08:31:23.090Z,1018.41
2018-07-08T08:32:23.024Z,1018.37
2018-07-08T08:33:22.953Z,1018.36
2018-07-08T08:34:22.881Z,1018.39
2018-07-08T08:35:22.815Z,1018.39
2018-07-08T08:36:22.785Z,1018.39
2018-07-08T08:37:22.677Z,1018.37
2018-07-08T08:38:22.603Z,1018.37
2018-07-08T08:39:22.536Z,1018.39
2018-07-08T08:40:22.460Z,1018.36
2018-07-08T08:41:22.397Z,1018.35
2018-07-08T08:42:22.324Z,1018.35
2018-07-08T08:43:22.251Z,1018.29
2018-07-08T08:44:22.186Z,1018.33
2018-07-08T08:45:22.118Z,1018.37
2018-07-08T08:46:22.047Z,1018.36
2018-07-08T08:47:21.978Z,1018.34
2018-07-08T08:48:21.908Z,1018.37
2018-07-08T08:49:21.839Z,1018.35
2018-07-08T08:50:21.769Z,1018.34
2018-07-08T08:51:21.703Z,1018.35
2018-07-08T08:52:21.672Z,1018.35
2018-07-08T08:53:21.563Z,1018.41
2018-07-08T08:54:21.497Z,1018.39
2018-07-08T08:55:21.424Z,1018.35
2018-07-08T08:56:21.370Z,1018.37
2018-07-08T08:57:21.288Z,1018.33
2018-07-08T08:58:21.248Z,1018.33
2018-07-08T08:59:21.154Z,1018.37
2018-07-08T09:00:21.080Z,1018.27
2018-07-08T09:01:21.031Z,1018.34
2018-07-08T09:02:20.954Z,1018.33
2018-07-08T09:03:20.873Z,1018.34
2018-07-08T09:04:20.806Z,1018.37
2018-07-08T09:05:20.738Z,1018.41
2018-07-08T09:06:20.666Z,1018.39
2018-07-08T09:07:20.600Z,1018.31
2018-07-08T09:08:20.535Z,1018.38
2018-07-08T09:09:20.465Z,1018.35
2018-07-08T09:10:20.409Z,1018.33
2018-07-08T09:11:20.327Z,1018.36
2018-07-08T09:12:20.264Z,1018.37
2018-07-08T09:13:20.199Z,1018.35
2018-07-08T09:14:20.123Z,1018.39
2018-07-08T09:15:20.054Z,1018.45
2018-07-08T09:16:19.982Z,1018.43
2018-07-08T09:17:19.994Z,1018.46
2018-07-08T09:18:19.853Z,1018.50
2018-07-08T09:19:19.782Z,1018.54
2018-07-08T09:20:19.721Z,1018.46
2018-07-08T09:21:19.651Z,1018.52
2018-07-08T09:22:19.586Z,1018.55
2018-07-08T09:23:19.523Z,1018.50
2018-07-08T09:24:19.456Z,1018.46
2018-07-08T09:25:19.397Z,1018.46
2018-07-08T09:26:19.332Z,1018.50
2018-07-08T09:27:19.263Z,1018.53
2018-07-08T09:28:19.205Z,1018.54
2018-07-08T09:29:19.213Z,1018.50
2018-07-08T09:30:19.085Z,1018.52
2018-07-08T09:31:19.018Z,1018.54
2018-07-08T09:32:18.966Z,1018.52
2018-07-08T09:33:18.896Z,1018.49
2018-07-08T09:34:18.842Z,1018.53
2018-07-08T09:35:18.781Z,1018.51
2018-07-08T09:36:18.725Z,1018.53
2018-07-08T09:37:18.655Z,1018.48
2018-07-08T09:38:18.602Z,1018.47
2018-07-08T09:39:18.635Z,1018.45
2018-07-08T09:40:18.482Z,1018.45
2018-07-08T09:41:18.417Z,1018.45
2018-07-08T09:42:18.363Z,1018.49
2018-07-08T09:43:18.305Z,1018.50
2018-07-08T09:44:18.246Z,1018.53
2018-07-08T09:45:18.188Z,1018.53
2018-07-08T09:46:18.127Z,1018.57
2018-07-08T09:47:18.078Z,1018.62
2018-07-08T09:48:18.016Z,1018.59
2018-07-08T09:49:17.956Z,1018.56
2018-07-08T09:50:17.905Z,1018.57
2018-07-08T09:51:17.843Z,1018.57
2018-07-08T09:52:17.790Z,1018.58
2018-07-08T09:53:17.726Z,1018.54
2018-07-08T09:54:17.673Z,1018.55
2018-07-08T09:55:17.618Z,1018.54
2018-07-08T09:56:17.559Z,1018.58
2018-07-08T09:57:17.503Z,1018.52
2018-07-08T09:58:17.449Z,1018.56
2018-07-08T09:59:17.400Z,1018.58
2018-07-08T10:00:17.338Z,1018.51
2018-07-08T10:01:17.278Z,1018.49
2018-07-08T10:02:17.220Z,1018.54
2018-07-08T10:03:17.164Z,1018.55
2018-07-08T10:04:17.107Z,1018.52
2018-07-08T10:05:17.054Z,1018.48
2018-07-08T10:06:17.000Z,1018.48
2018-07-08T10:07:16.942Z,1018.53
2018-07-08T10:08:16.888Z,1018.48
2018-07-08T10:09:16.837Z,1018.51
2018-07-08T10:10:16.777Z,1018.52
2018-07-08T10:11:16.727Z,1018.51
2018-07-08T10:12:16.670Z,1018.46
2018-07-08T10:13:16.614Z,1018.48
2018-07-08T10:14:16.557Z,1018.47
2018-07-08T10:15:16.504Z,1018.47
2018-07-08T10:16:16.463Z,1018.49
2018-07-08T10:17:16.515Z,1018.46
2018-07-08T10:18:16.342Z,1018.44
2018-07-08T10:19:16.332Z,1018.46
2018-07-08T10:20:16.232Z,1018.42
2018-07-08T10:21:16.178Z,1018.46
2018-07-08T10:22:16.125Z,1018.45
2018-07-08T10:23:16.077Z,1018.45
2018-07-08T10:24:16.017Z,1018.45
2018-07-08T10:25:15.975Z,1018.49
2018-07-08T10:26:15.910Z,1018.48
2018-07-08T10:27:15.854Z,1018.47
2018-07-08T10:28:15.804Z,1018.46
2018-07-08T10:29:15.755Z,1018.45
2018-07-08T10:30:15.707Z,1018.41
2018-07-08T10:31:15.639Z,1018.42
2018-07-08T10:32:15.592Z,1018.42
2018-07-08T10:33:15.549Z,1018.41
2018-07-08T10:34:15.491Z,1018.40
2018-07-08T10:35:15.435Z,1018.43
2018-07-08T10:36:15.381Z,1018.32
2018-07-08T10:37:15.323Z,1018.38
2018-07-08T10:38:15.324Z,1018.37
2018-07-08T10:39:15.215Z,1018.34
2018-07-08T10:40:15.164Z,1018.39
2018-07-08T10:41:15.114Z,1018.38
2018-07-08T10:42:15.065Z,1018.45
2018-07-08T10:43:15.032Z,1018.27
2018-07-08T10:44:14.955Z,1018.24
2018-07-08T10:45:14.905Z,1018.26
2018-07-08T10:46:14.843Z,1018.51
2018-07-08T10:47:14.791Z,1018.34
2018-07-08T10:48:14.736Z,1018.38
2018-07-08T10:49:14.682Z,1018.25
2018-07-08T10:50:14.631Z,1018.25
2018-07-08T10:51:14.571Z,1018.22
2018-07-08T10:52:14.520Z,1018.20
2018-07-08T10:53:14.459Z,1018.15
2018-07-08T10:54:14.403Z,1018.08
2018-07-08T10:55:14.363Z,1018.16
2018-07-08T10:56:14.291Z,1018.16
2018-07-08T10:57:14.229Z,1018.07
2018-07-08T10:58:14.172Z,1018.22
2018-07-08T10:59:14.111Z,1018.29
2018-07-08T11:00:14.055Z,1018.24
2018-07-08T11:01:13.998Z,1018.23
2018-07-08T11:02:13.939Z,1018.08
2018-07-08T11:03:13.880Z,1018.08
2018-07-08T11:04:13.819Z,1018.06
2018-07-08T11:05:13.757Z,1018.06
2018-07-08T11:06:13.701Z,1018.07
2018-07-08T11:07:13.637Z,1018.04
2018-07-08T11:08:13.580Z,1017.98
2018-07-08T11:09:13.518Z,1018.02
2018-07-08T11:10:13.463Z,1018.00
2018-07-08T11:11:13.398Z,1018.12
2018-07-08T11:12:13.345Z,1017.97
2018-07-08T11:13:13.276Z,1018.15
2018-07-08T11:14:13.227Z,1017.90
2018-07-08T11:15:13.152Z,1017.82
2018-07-08T11:16:13.093Z,1017.88
2018-07-08T11:17:13.032Z,1017.85
2018-07-08T11:18:12.972Z,1017.82
2018-07-08T11:19:12.911Z,1017.89
2018-07-08T11:20:12.847Z,1017.83
2018-07-08T11:21:12.800Z,1018.09
2018-07-08T11:22:12.732Z,1018.17
2018-07-08T11:23:12.668Z,1018.19
2018-07-08T11:24:12.605Z,1018.14
2018-07-08T11:25:12.541Z,1018.15
2018-07-08T11:26:12.482Z,1018.20
2018-07-08T11:27:12.420Z,1018.22
2018-07-08T11:28:12.359Z,1018.19
2018-07-08T11:29:12.298Z,1018.04
2018-07-08T11:30:12.240Z,1018.03
2018-07-08T11:31:12.178Z,1017.99
2018-07-08T11:32:12.129Z,1018.00
2018-07-08T11:33:12.061Z,1018.00
2018-07-08T11:34:12.003Z,1018.03
2018-07-08T11:35:11.941Z,1017.98
2018-07-08T11:36:11.885Z,1017.91
2018-07-08T11:37:11.824Z,1017.88
2018-07-08T11:38:11.764Z,1017.86
2018-07-08T11:39:11.714Z,1018.12
2018-07-08T11:40:11.646Z,1017.76
2018-07-08T11:41:11.594Z,1017.81
2018-07-08T11:42:11.526Z,1017.74
2018-07-08T11:43:11.468Z,1017.68
2018-07-08T11:44:11.410Z,1017.66
2018-07-08T11:45:11.353Z,1017.69
2018-07-08T11:46:11.292Z,1017.69
2018-07-08T11:47:11.225Z,1017.60
2018-07-08T11:48:11.163Z,1017.56
2018-07-08T11:49:11.109Z,1017.56
2018-07-08T11:50:11.046Z,1017.63
2018-07-08T11:51:10.988Z,1017.53
2018-07-08T11:52:10.927Z,1017.66
2018-07-08T11:53:10.863Z,1017.53
2018-07-08T11:54:10.804Z,1017.53
2018-07-08T11:55:10.742Z,1017.53
2018-07-08T11:56:10.677Z,1017.58
2018-07-08T11:57:10.621Z,1017.52
2018-07-08T11:58:10.560Z,1017.51
2018-07-08T11:59:10.496Z,1017.50
2018-07-08T12:00:10.431Z,1017.52
2018-07-08T12:01:10.370Z,1017.51
2018-07-08T12:02:10.306Z,1017.56
2018-07-08T12:03:10.243Z,1017.52
2018-07-08T12:04:10.176Z,1017.56
2018-07-08T12:05:10.175Z,1017.62